createdAt,value
2016-09-05T00:00:03.242Z,4.16
2016-09-05T00:01:03.234Z,4.24
2016-09-05T00:02:03.915Z,4.16
2016-09-05T00:03:03.190Z,4.2
2016-09-05T00:04:03.190Z,4.2
2016-09-05T00:05:03.164Z,4.16
2016-09-05T00:06:03.145Z,4.18
2016-09-05T00:07:03.131Z,4.11
2016-09-05T00:08:03.151Z,4.17
2016-09-05T00:09:03.107Z,4.18
2016-09-05T00:10:03.121Z,4.11
2016-09-05T00:11:03.105Z,4.14
2016-09-05T00:12:03.078Z,4.11
2016-09-05T00:13:03.089Z,4.04
2016-09-05T00:14:03.063Z,4
2016-09-05T00:15:03.034Z,3.74
2016-09-05T00:16:03.021Z,3.63
2016-09-05T00:17:03.033Z,3.6
2016-09-05T00:18:03.717Z,3.53
2016-09-05T00:19:03.007Z,3.57
2016-09-05T00:20:03.005Z,3.6
2016-09-05T00:21:02.995Z,3.71
2016-09-05T00:22:02.960Z,3.54
2016-09-05T00:23:02.965Z,3.25
2016-09-05T00:24:02.942Z,3.01
2016-09-05T00:25:02.921Z,2.87
2016-09-05T00:26:02.926Z,2.81
2016-09-05T00:27:02.901Z,2.65
2016-09-05T00:28:02.898Z,2.58
2016-09-05T00:29:02.882Z,2.48
2016-09-05T00:30:02.850Z,2.38
2016-09-05T00:31:02.850Z,2.11
2016-09-05T00:32:02.820Z,1.93
2016-09-05T00:33:02.802Z,1.9
2016-09-05T00:34:02.802Z,1.9
2016-09-05T00:35:02.790Z,1.9
2016-09-05T00:36:03.464Z,2.01
2016-09-05T00:37:02.765Z,2.01
2016-09-05T00:38:02.748Z,1.85
2016-09-05T00:39:02.731Z,1.86
2016-09-05T00:40:02.716Z,1.9
2016-09-05T00:41:02.713Z,2
2016-09-05T00:42:02.700Z,1.98
2016-09-05T00:43:02.692Z,2.02
2016-09-05T00:44:02.670Z,1.92
2016-09-05T00:45:02.660Z,1.85
2016-09-05T00:46:02.626Z,1.93
2016-09-05T00:47:02.645Z,1.98
2016-09-05T00:48:02.610Z,1.89
2016-09-05T00:49:02.602Z,1.85
2016-09-05T00:50:02.585Z,1.86
2016-09-05T00:51:02.575Z,1.88
2016-09-05T00:52:02.547Z,1.92
2016-09-05T00:53:02.535Z,1.86
2016-09-05T00:54:02.537Z,1.63
2016-09-05T00:55:02.533Z,1.44
2016-09-05T00:56:02.492Z,1.49
2016-09-05T00:57:02.478Z,1.43
2016-09-05T00:58:02.483Z,1.32
2016-09-05T00:59:02.474Z,1.36
2016-09-05T01:00:02.444Z,1.38
2016-09-05T01:01:02.455Z,1.26
2016-09-05T01:02:02.418Z,1.18
2016-09-05T01:03:02.393Z,1.21
2016-09-05T01:04:02.392Z,1.31
2016-09-05T01:05:02.378Z,1.43
2016-09-05T01:06:02.346Z,1.38
2016-09-05T01:07:02.350Z,1.29
2016-09-05T01:08:02.345Z,1.29
2016-09-05T01:09:02.334Z,1.2
2016-09-05T01:10:02.324Z,1.28
2016-09-05T01:11:02.293Z,1.18
2016-09-05T01:12:02.285Z,1.2
2016-09-05T01:13:02.261Z,1.1
2016-09-05T01:14:02.227Z,1.18
2016-09-05T01:15:02.230Z,1.14
2016-09-05T01:16:02.245Z,1.17
2016-09-05T01:17:02.217Z,1.16
2016-09-05T01:18:02.192Z,1.24
2016-09-05T01:19:02.166Z,1.29
2016-09-05T01:20:02.165Z,1.32
2016-09-05T01:21:02.151Z,1.28
2016-09-05T01:22:02.132Z,1.36
2016-09-05T01:23:02.128Z,1.39
2016-09-05T01:24:02.102Z,1.39
2016-09-05T01:25:02.074Z,1.32
2016-09-05T01:26:02.079Z,1.29
2016-09-05T01:27:02.053Z,1.38
2016-09-05T01:28:02.042Z,1.39
2016-09-05T01:29:02.049Z,1.52
2016-09-05T01:30:02.054Z,1.46
2016-09-05T01:31:02.008Z,1.43
2016-09-05T01:32:01.984Z,1.52
2016-09-05T01:33:01.993Z,1.43
2016-09-05T01:34:01.944Z,1.52
2016-09-05T01:35:01.952Z,1.47
2016-09-05T01:36:01.928Z,1.43
2016-09-05T01:37:01.920Z,1.46
2016-09-05T01:38:01.887Z,1.56
2016-09-05T01:39:01.910Z,1.61
2016-09-05T01:40:01.863Z,1.64
2016-09-05T01:41:01.853Z,1.61
2016-09-05T01:42:01.834Z,1.61
2016-09-05T01:43:01.840Z,1.54
2016-09-05T01:44:01.823Z,1.61
2016-09-05T01:45:01.798Z,1.53
2016-09-05T01:46:01.785Z,1.61
2016-09-05T01:47:01.772Z,1.6
2016-09-05T01:48:01.771Z,1.6
2016-09-05T01:49:01.737Z,1.68
2016-09-05T01:50:01.727Z,1.7
2016-09-05T01:51:01.734Z,1.77
2016-09-05T01:52:01.699Z,1.74
2016-09-05T01:53:01.686Z,1.71
2016-09-05T01:54:01.667Z,1.77
2016-09-05T01:55:01.653Z,1.65
2016-09-05T01:56:01.670Z,1.68
2016-09-05T01:57:01.663Z,1.74
2016-09-05T01:58:01.623Z,1.71
2016-09-05T01:59:01.583Z,1.68
2016-09-05T02:00:01.594Z,1.74
2016-09-05T02:01:01.591Z,1.82
2016-09-05T02:02:01.567Z,1.86
2016-09-05T02:03:01.563Z,1.67
2016-09-05T02:04:01.535Z,1.65
2016-09-05T02:05:01.515Z,1.68
2016-09-05T02:06:01.504Z,1.61
2016-09-05T02:07:01.493Z,1.65
2016-09-05T02:08:01.471Z,1.68
2016-09-05T02:09:01.484Z,1.71
2016-09-05T02:10:01.441Z,1.77
2016-09-05T02:11:02.145Z,1.75
2016-09-05T02:12:01.425Z,1.77
2016-09-05T02:13:01.403Z,1.77
2016-09-05T02:14:01.393Z,1.79
2016-09-05T02:15:01.360Z,1.64
2016-09-05T02:16:01.375Z,1.6
2016-09-05T02:17:01.367Z,1.65
2016-09-05T02:18:01.326Z,1.56
2016-09-05T02:19:01.323Z,1.6
2016-09-05T02:20:01.297Z,1.46
2016-09-05T02:21:01.298Z,1.57
2016-09-05T02:22:01.274Z,1.61
2016-09-05T02:23:01.260Z,1.61
2016-09-05T02:24:01.232Z,1.53
2016-09-05T02:25:01.236Z,1.52
2016-09-05T02:26:01.235Z,1.57
2016-09-05T02:27:01.184Z,1.5
2016-09-05T02:28:01.201Z,1.46
2016-09-05T02:29:01.170Z,1.49
2016-09-05T02:30:01.177Z,1.38
2016-09-05T02:31:01.134Z,1.47
2016-09-05T02:32:01.141Z,1.36
2016-09-05T02:33:01.124Z,1.38
2016-09-05T02:34:01.089Z,1.39
2016-09-05T02:35:01.103Z,1.42
2016-09-05T02:36:01.076Z,1.29
2016-09-05T02:37:01.079Z,1.34
2016-09-05T02:38:01.023Z,1.24
2016-09-05T02:39:01.045Z,1.18
2016-09-05T02:40:01.037Z,1.28
2016-09-05T02:41:00.981Z,1.25
2016-09-05T02:42:00.979Z,1.29
2016-09-05T02:43:01.667Z,1.24
2016-09-05T02:44:00.961Z,1.26
2016-09-05T02:45:00.958Z,1.29
2016-09-05T02:46:00.922Z,1.32
2016-09-05T02:47:00.908Z,1.31
2016-09-05T02:48:00.903Z,1.31
2016-09-05T02:49:00.877Z,1.24
2016-09-05T02:50:00.870Z,1.17
2016-09-05T02:51:00.867Z,1.18
2016-09-05T02:52:00.819Z,1.26
2016-09-05T02:53:00.806Z,1.2
2016-09-05T02:54:00.800Z,1.18
2016-09-05T02:55:00.803Z,1.17
2016-09-05T02:56:00.782Z,1.28
2016-09-05T02:57:00.822Z,1.18
2016-09-05T02:58:00.741Z,1.17
2016-09-05T02:59:00.721Z,1.21
2016-09-05T03:00:00.731Z,1.21
2016-09-05T03:01:00.712Z,1.2
2016-09-05T03:02:00.685Z,1.21
2016-09-05T03:03:00.674Z,1.21
2016-09-05T03:04:00.663Z,1.2
2016-09-05T03:05:00.648Z,1.2
2016-09-05T03:06:00.628Z,1.2
2016-09-05T03:07:00.618Z,1.31
2016-09-05T03:08:00.582Z,1.29
2016-09-05T03:09:00.581Z,1.29
2016-09-05T03:10:00.573Z,1.28
2016-09-05T03:11:00.560Z,1.32
2016-09-05T03:12:00.547Z,1.28
2016-09-05T03:13:00.526Z,1.35
2016-09-05T03:14:00.510Z,1.26
2016-09-05T03:15:00.517Z,1.21
2016-09-05T03:16:00.488Z,1.14
2016-09-05T03:17:00.486Z,1.16
2016-09-05T03:18:00.456Z,1.13
2016-09-05T03:19:00.442Z,1.07
2016-09-05T03:20:00.421Z,1.1
2016-09-05T03:21:00.399Z,1.16
2016-09-05T03:22:00.396Z,1.11
2016-09-05T03:23:00.395Z,1.2
2016-09-05T03:24:00.376Z,1.16
2016-09-05T03:25:00.373Z,1.31
2016-09-05T03:26:00.341Z,1.21
2016-09-05T03:27:00.341Z,1.24
2016-09-05T03:28:00.307Z,1.24
2016-09-05T03:29:00.305Z,1.24
2016-09-05T03:30:00.296Z,1.24
2016-09-05T03:31:00.284Z,1.24
2016-09-05T03:32:00.279Z,1.28
2016-09-05T03:33:00.246Z,1.32
2016-09-05T03:34:00.240Z,1.47
2016-09-05T03:35:00.221Z,1.31
2016-09-05T03:36:00.909Z,1.21
2016-09-05T03:37:00.187Z,1.2
2016-09-05T03:38:00.177Z,1.25
2016-09-05T03:39:00.179Z,1.31
2016-09-05T03:40:00.129Z,1.28
2016-09-05T03:41:00.133Z,1.32
2016-09-05T03:42:00.124Z,1.21
2016-09-05T03:43:00.102Z,1.14
2016-09-05T03:44:00.091Z,1.13
2016-09-05T03:45:00.080Z,1.02
2016-09-05T03:46:00.062Z,1.04
2016-09-05T03:47:00.030Z,1.02
2016-09-05T03:48:00.047Z,1.1
2016-09-05T03:49:00.025Z,1.11
2016-09-05T03:50:00.010Z,1.11
2016-09-05T03:50:59.995Z,1.17
2016-09-05T03:51:59.982Z,1.13
2016-09-05T03:52:59.982Z,1.02
2016-09-05T03:53:59.943Z,1.07
2016-09-05T03:54:59.928Z,1.11
2016-09-05T03:55:59.924Z,1.13
2016-09-05T03:56:59.907Z,1.04
2016-09-05T03:57:59.883Z,1.02
2016-09-05T03:58:59.902Z,1.07
2016-09-05T03:59:59.874Z,1.13
2016-09-05T04:00:59.852Z,1.14
2016-09-05T04:01:59.825Z,1.13
2016-09-05T04:02:59.831Z,1.07
2016-09-05T04:03:59.820Z,0.92
2016-09-05T04:04:59.790Z,0.92
2016-09-05T04:05:59.764Z,1.08
2016-09-05T04:06:59.771Z,0.96
2016-09-05T04:07:59.753Z,0.99
2016-09-05T04:08:59.760Z,1.06
2016-09-05T04:09:59.721Z,1.02
2016-09-05T04:10:59.712Z,1.02
2016-09-05T04:11:59.710Z,0.9
2016-09-05T04:12:59.696Z,0.99
2016-09-05T04:13:59.672Z,1.06
2016-09-05T04:14:59.650Z,0.96
2016-09-05T04:15:59.632Z,1.08
2016-09-05T04:16:59.618Z,0.99
2016-09-05T04:17:59.628Z,0.9
2016-09-05T04:18:59.611Z,0.81
2016-09-05T04:19:59.576Z,0.9
2016-09-05T04:20:59.556Z,0.98
2016-09-05T04:21:59.546Z,1.04
2016-09-05T04:22:59.535Z,1.11
2016-09-05T04:23:59.521Z,0.96
2016-09-05T04:24:59.511Z,1.13
2016-09-05T04:25:59.486Z,1.06
2016-09-05T04:26:59.459Z,1.11
2016-09-05T04:27:59.458Z,1.2
2016-09-05T04:28:59.454Z,0.96
2016-09-05T04:29:59.442Z,0.88
2016-09-05T04:30:59.421Z,0.92
2016-09-05T04:31:59.401Z,0.9
2016-09-05T04:32:59.413Z,0.95
2016-09-05T04:33:59.386Z,0.95
2016-09-05T04:34:59.373Z,0.93
2016-09-05T04:35:59.356Z,0.84
2016-09-05T04:36:59.355Z,0.75
2016-09-05T04:37:59.327Z,0.81
2016-09-05T04:38:59.329Z,0.77
2016-09-05T04:39:59.288Z,0.84
2016-09-05T04:40:59.281Z,0.81
2016-09-05T04:41:59.262Z,0.89
2016-09-05T04:42:59.250Z,0.84
2016-09-05T04:43:59.221Z,0.82
2016-09-05T04:44:59.227Z,0.9
2016-09-05T04:45:59.210Z,0.86
2016-09-05T04:46:59.202Z,0.84
2016-09-05T04:47:59.183Z,0.82
2016-09-05T04:48:59.156Z,0.84
2016-09-05T04:49:59.157Z,0.8
2016-09-05T04:50:59.135Z,0.78
2016-09-05T04:51:59.126Z,0.77
2016-09-05T04:52:59.094Z,0.64
2016-09-05T04:53:59.074Z,0.63
2016-09-05T04:54:59.079Z,0.64
2016-09-05T04:55:59.062Z,0.74
2016-09-05T04:56:59.051Z,0.68
2016-09-05T04:57:59.052Z,0.74
2016-09-05T04:58:59.003Z,0.7
2016-09-05T04:59:59.021Z,0.75
2016-09-05T05:00:58.990Z,0.81
2016-09-05T05:01:58.984Z,0.8
2016-09-05T05:02:58.949Z,0.75
2016-09-05T05:03:58.926Z,0.77
2016-09-05T05:04:58.936Z,0.86
2016-09-05T05:05:58.950Z,0.82
2016-09-05T05:06:58.888Z,0.7
2016-09-05T05:07:58.895Z,0.77
2016-09-05T05:08:58.858Z,0.63
2016-09-05T05:09:58.856Z,0.64
2016-09-05T05:10:58.846Z,0.38
2016-09-05T05:11:58.810Z,0.23
2016-09-05T05:12:58.818Z,0.31
2016-09-05T05:13:58.791Z,0.19
2016-09-05T05:14:58.769Z,0.38
2016-09-05T05:15:58.775Z,0.49
2016-09-05T05:16:58.739Z,0.45
2016-09-05T05:17:58.735Z,0.45
2016-09-05T05:18:58.720Z,0.49
2016-09-05T05:19:58.711Z,0.68
2016-09-05T05:20:58.688Z,0.52
2016-09-05T05:21:58.690Z,0.6
2016-09-05T05:22:58.656Z,0.48
2016-09-05T05:23:58.650Z,0.44
2016-09-05T05:24:58.638Z,0.56
2016-09-05T05:25:58.627Z,0.52
2016-09-05T05:26:58.603Z,0.59
2016-09-05T05:27:58.570Z,0.62
2016-09-05T05:28:58.573Z,0.62
2016-09-05T05:29:58.574Z,0.62
2016-09-05T05:30:58.542Z,0.6
2016-09-05T05:31:58.523Z,0.62
2016-09-05T05:32:58.522Z,0.53
2016-09-05T05:33:58.482Z,0.56
2016-09-05T05:34:58.487Z,0.56
2016-09-05T05:35:58.465Z,0.53
2016-09-05T05:36:58.455Z,0.62
2016-09-05T05:37:58.434Z,0.64
2016-09-05T05:38:58.419Z,0.67
2016-09-05T05:39:58.409Z,0.75
2016-09-05T05:40:58.402Z,0.71
2016-09-05T05:41:58.381Z,0.74
2016-09-05T05:42:58.345Z,0.81
2016-09-05T05:43:58.337Z,0.82
2016-09-05T05:44:59.205Z,0.84
2016-09-05T05:45:58.319Z,0.88
2016-09-05T05:46:58.309Z,0.81
2016-09-05T05:47:58.274Z,0.9
2016-09-05T05:48:58.274Z,0.93
2016-09-05T05:49:58.266Z,0.89
2016-09-05T05:50:58.242Z,0.9
2016-09-05T05:51:58.234Z,0.95
2016-09-05T05:52:58.199Z,0.95
2016-09-05T05:53:58.213Z,0.93
2016-09-05T05:54:58.177Z,0.99
2016-09-05T05:55:58.166Z,0.9
2016-09-05T05:56:58.150Z,0.9
2016-09-05T05:57:58.177Z,0.9
2016-09-05T05:58:58.127Z,0.96
2016-09-05T05:59:58.102Z,0.89
2016-09-05T06:00:58.099Z,0.96
2016-09-05T06:01:58.097Z,0.95
2016-09-05T06:02:58.054Z,1
2016-09-05T06:03:58.067Z,0.98
2016-09-05T06:04:58.054Z,1
2016-09-05T06:05:58.039Z,0.99
2016-09-05T06:06:58.020Z,0.99
2016-09-05T06:07:58.006Z,0.99
2016-09-05T06:08:57.980Z,0.98
2016-09-05T06:09:57.981Z,0.95
2016-09-05T06:10:57.972Z,0.95
2016-09-05T06:11:57.934Z,1.02
2016-09-05T06:12:57.937Z,0.92
2016-09-05T06:13:57.907Z,1.02
2016-09-05T06:14:57.916Z,0.98
2016-09-05T06:15:57.888Z,1
2016-09-05T06:16:57.884Z,1.02
2016-09-05T06:17:57.855Z,1
2016-09-05T06:18:57.853Z,0.99
2016-09-05T06:19:57.833Z,0.98
2016-09-05T06:20:58.500Z,0.95
2016-09-05T06:21:57.811Z,0.99
2016-09-05T06:22:57.786Z,1
2016-09-05T06:23:57.795Z,0.96
2016-09-05T06:24:57.771Z,0.92
2016-09-05T06:25:57.772Z,0.93
2016-09-05T06:26:57.740Z,1
2016-09-05T06:27:57.707Z,1.07
2016-09-05T06:28:57.700Z,1.07
2016-09-05T06:29:57.691Z,0.99
2016-09-05T06:30:57.663Z,0.95
2016-09-05T06:31:57.650Z,1
2016-09-05T06:32:57.663Z,1.04
2016-09-05T06:33:57.636Z,0.99
2016-09-05T06:34:57.668Z,1.04
2016-09-05T06:35:57.623Z,1.02
2016-09-05T06:36:57.606Z,1
2016-09-05T06:37:57.602Z,0.96
2016-09-05T06:38:57.572Z,1.06
2016-09-05T06:39:57.567Z,1.04
2016-09-05T06:40:57.553Z,1.07
2016-09-05T06:41:57.539Z,1.08
2016-09-05T06:42:57.502Z,1.04
2016-09-05T06:43:57.513Z,1.07
2016-09-05T06:44:57.475Z,1.06
2016-09-05T06:45:57.486Z,1.1
2016-09-05T06:46:57.485Z,1.08
2016-09-05T06:47:57.446Z,1.18
2016-09-05T06:48:57.439Z,1
2016-09-05T06:49:57.430Z,1.07
2016-09-05T06:50:57.417Z,1.14
2016-09-05T06:51:57.383Z,1.17
2016-09-05T06:52:57.389Z,1.16
2016-09-05T06:53:57.383Z,1.11
2016-09-05T06:54:57.355Z,1.18
2016-09-05T06:55:57.324Z,1.24
2016-09-05T06:56:57.335Z,1.17
2016-09-05T06:57:57.376Z,1.13
2016-09-05T06:58:57.314Z,1.21
2016-09-05T06:59:57.289Z,1.1
2016-09-05T07:00:57.269Z,1.25
2016-09-05T07:01:57.262Z,1.16
2016-09-05T07:02:57.235Z,1.28
2016-09-05T07:03:57.234Z,1.21
2016-09-05T07:04:57.191Z,1.34
2016-09-05T07:05:57.208Z,1.39
2016-09-05T07:06:57.169Z,1.39
2016-09-05T07:07:57.183Z,1.31
2016-09-05T07:08:57.157Z,1.32
2016-09-05T07:09:57.134Z,1.44
2016-09-05T07:10:57.143Z,1.46
2016-09-05T07:11:57.132Z,1.42
2016-09-05T07:12:57.102Z,1.46
2016-09-05T07:13:57.101Z,1.46
2016-09-05T07:14:57.074Z,1.47
2016-09-05T07:15:57.073Z,1.34
2016-09-05T07:16:57.041Z,1.35
2016-09-05T07:17:57.016Z,1.46
2016-09-05T07:18:57.014Z,1.42
2016-09-05T07:19:57.009Z,1.54
2016-09-05T07:20:56.981Z,1.56
2016-09-05T07:21:56.967Z,1.63
2016-09-05T07:22:56.966Z,1.61
2016-09-05T07:23:56.938Z,1.65
2016-09-05T07:24:56.923Z,1.67
2016-09-05T07:25:56.912Z,1.72
2016-09-05T07:26:56.917Z,1.74
2016-09-05T07:27:56.898Z,1.6
2016-09-05T07:28:56.876Z,1.63
2016-09-05T07:29:56.872Z,1.6
2016-09-05T07:30:56.962Z,1.68
2016-09-05T07:31:56.831Z,1.68
2016-09-05T07:32:56.801Z,1.57
2016-09-05T07:33:56.801Z,1.54
2016-09-05T07:34:57.504Z,1.85
2016-09-05T07:35:56.761Z,2.01
2016-09-05T07:36:56.770Z,1.98
2016-09-05T07:37:56.759Z,1.85
2016-09-05T07:38:56.745Z,1.82
2016-09-05T07:39:56.730Z,1.67
2016-09-05T07:40:56.715Z,1.81
2016-09-05T07:41:56.686Z,1.75
2016-09-05T07:42:56.661Z,1.79
2016-09-05T07:43:56.670Z,1.64
2016-09-05T07:44:56.664Z,1.71
2016-09-05T07:45:56.626Z,1.68
2016-09-05T07:46:56.637Z,1.72
2016-09-05T07:47:57.312Z,1.95
2016-09-05T07:48:56.588Z,1.89
2016-09-05T07:49:56.604Z,1.85
2016-09-05T07:50:56.591Z,1.92
2016-09-05T07:51:56.576Z,1.92
2016-09-05T07:52:56.562Z,2.01
2016-09-05T07:53:56.536Z,2.08
2016-09-05T07:54:56.524Z,2.11
2016-09-05T07:55:56.495Z,2.15
2016-09-05T07:56:56.494Z,2.01
2016-09-05T07:57:56.532Z,2.04
2016-09-05T07:58:56.447Z,2.23
2016-09-05T07:59:56.467Z,2.5
2016-09-05T08:00:56.446Z,2.62
2016-09-05T08:01:56.423Z,2.5
2016-09-05T08:02:56.422Z,2.63
2016-09-05T08:03:56.408Z,2.5
2016-09-05T08:04:56.417Z,2.29
2016-09-05T08:05:56.375Z,2.12
2016-09-05T08:06:56.357Z,2.02
2016-09-05T08:07:56.357Z,2
2016-09-05T08:08:56.330Z,2.14
2016-09-05T08:09:56.317Z,2.02
2016-09-05T08:10:56.310Z,1.95
2016-09-05T08:11:56.290Z,2.07
2016-09-05T08:12:56.286Z,2.12
2016-09-05T08:13:56.982Z,2.15
2016-09-05T08:14:56.260Z,2.07
2016-09-05T08:15:56.235Z,2.09
2016-09-05T08:16:56.229Z,2.15
2016-09-05T08:17:56.214Z,1.98
2016-09-05T08:18:56.185Z,2.18
2016-09-05T08:19:56.210Z,2.3
2016-09-05T08:20:56.189Z,2.33
2016-09-05T08:21:56.165Z,2.27
2016-09-05T08:22:56.163Z,2.2
2016-09-05T08:23:56.146Z,2.23
2016-09-05T08:24:56.147Z,2.2
2016-09-05T08:25:56.124Z,2.26
2016-09-05T08:26:56.113Z,2.37
2016-09-05T08:27:56.106Z,2.38
2016-09-05T08:28:56.066Z,2.55
2016-09-05T08:29:56.069Z,2.43
2016-09-05T08:30:56.037Z,2.43
2016-09-05T08:31:56.047Z,2.59
2016-09-05T08:32:56.024Z,2.73
2016-09-05T08:33:56.031Z,2.76
2016-09-05T08:34:56.004Z,2.89
2016-09-05T08:35:55.991Z,2.81
2016-09-05T08:36:55.975Z,2.71
2016-09-05T08:37:55.968Z,2.87
2016-09-05T08:38:55.962Z,2.81
2016-09-05T08:39:55.933Z,2.79
2016-09-05T08:40:55.925Z,2.59
2016-09-05T08:41:55.907Z,2.71
2016-09-05T08:42:55.911Z,2.76
2016-09-05T08:43:55.886Z,2.76
2016-09-05T08:44:55.859Z,2.86
2016-09-05T08:45:55.856Z,2.89
2016-09-05T08:46:55.853Z,2.89
2016-09-05T08:47:55.834Z,2.8
2016-09-05T08:48:55.814Z,2.71
2016-09-05T08:49:55.819Z,2.63
2016-09-05T08:50:55.793Z,2.68
2016-09-05T08:51:55.800Z,2.59
2016-09-05T08:52:55.775Z,2.62
2016-09-05T08:53:55.775Z,2.76
2016-09-05T08:54:55.755Z,2.55
2016-09-05T08:55:55.742Z,2.62
2016-09-05T08:56:55.726Z,2.55
2016-09-05T08:57:55.732Z,2.09
2016-09-05T08:58:55.699Z,1.95
2016-09-05T08:59:55.693Z,1.79
2016-09-05T09:00:55.671Z,2.04
2016-09-05T09:01:55.672Z,2.12
2016-09-05T09:02:55.639Z,2.25
2016-09-05T09:03:55.640Z,2.27
2016-09-05T09:04:55.621Z,2.36
2016-09-05T09:05:55.609Z,2.48
2016-09-05T09:06:55.587Z,2.69
2016-09-05T09:07:55.608Z,2.86
2016-09-05T09:08:55.576Z,2.68
2016-09-05T09:09:55.557Z,2.65
2016-09-05T09:10:55.544Z,2.5
2016-09-05T09:11:55.538Z,2.37
2016-09-05T09:12:55.524Z,2.37
2016-09-05T09:15:55.491Z,2.02
2016-09-05T09:16:55.450Z,1.95
2016-09-05T09:17:55.444Z,1.93
2016-09-05T09:18:55.431Z,1.98
2016-09-05T09:19:55.432Z,2.09
2016-09-05T09:20:55.419Z,2.08
2016-09-05T09:21:55.403Z,2.11
2016-09-05T09:22:55.396Z,2.29
2016-09-05T09:23:55.379Z,2.3
2016-09-05T09:24:55.349Z,2.26
2016-09-05T09:25:55.355Z,2.27
2016-09-05T09:26:55.353Z,2.38
2016-09-05T09:27:55.328Z,2.5
2016-09-05T09:28:55.314Z,2.47
2016-09-05T09:29:55.282Z,2.51
2016-09-05T09:30:55.282Z,2.27
2016-09-05T09:31:55.253Z,2.32
2016-09-05T09:32:55.244Z,2.29
2016-09-05T09:33:55.242Z,2.4
2016-09-05T09:34:55.235Z,2.56
2016-09-05T09:35:55.226Z,2.71
2016-09-05T09:36:55.226Z,2.81
2016-09-05T09:37:55.179Z,2.79
2016-09-05T09:38:55.918Z,2.63
2016-09-05T09:39:55.159Z,2.8
2016-09-05T09:40:55.159Z,2.84
2016-09-05T09:41:55.149Z,2.76
2016-09-05T09:42:55.127Z,2.53
2016-09-05T09:43:55.144Z,2.48
2016-09-05T09:44:55.123Z,2.73
2016-09-05T09:45:55.089Z,2.79
2016-09-05T09:46:55.092Z,2.83
2016-09-05T09:47:55.079Z,2.73
2016-09-05T09:48:55.063Z,2.8
2016-09-05T09:49:55.047Z,2.4
2016-09-05T09:50:55.035Z,2.33
2016-09-05T09:51:55.006Z,2.15
2016-09-05T09:52:55.000Z,2.15
2016-09-05T09:53:54.981Z,2.14
2016-09-05T09:54:55.685Z,2.29
2016-09-05T09:55:54.961Z,2.48
2016-09-05T09:56:54.967Z,2.62
2016-09-05T09:57:54.938Z,2.62
2016-09-05T09:58:54.916Z,2.81
2016-09-05T09:59:54.932Z,2.97
2016-09-05T10:00:54.891Z,3.25
2016-09-05T10:01:54.906Z,3.26
2016-09-05T10:02:54.877Z,3.13
2016-09-05T10:03:54.862Z,2.89
2016-09-05T10:04:54.844Z,2.87
2016-09-05T10:05:54.837Z,2.83
2016-09-05T10:06:54.835Z,2.73
2016-09-05T10:07:54.816Z,2.29
2016-09-05T10:08:54.802Z,2.12
2016-09-05T10:09:54.799Z,2.11
2016-09-05T10:10:54.778Z,2.09
2016-09-05T10:11:54.746Z,2.11
2016-09-05T10:12:54.766Z,2.36
2016-09-05T10:13:54.729Z,2.14
2016-09-05T10:14:54.721Z,2.04
2016-09-05T10:15:54.699Z,1.81
2016-09-05T10:16:54.709Z,1.83
2016-09-05T10:17:54.670Z,1.95
2016-09-05T10:18:54.658Z,2.02
2016-09-05T10:19:54.655Z,2.09
2016-09-05T10:20:54.651Z,2.19
2016-09-05T10:21:54.624Z,2.2
2016-09-05T10:22:54.607Z,2.22
2016-09-05T10:23:54.596Z,2.3
2016-09-05T10:24:54.582Z,2.27
2016-09-05T10:25:54.561Z,2.22
2016-09-05T10:26:54.567Z,2.07
2016-09-05T10:27:54.537Z,1.95
2016-09-05T10:28:54.539Z,2.15
2016-09-05T10:29:54.511Z,2.27
2016-09-05T10:30:54.516Z,2.07
2016-09-05T10:31:54.478Z,2.09
2016-09-05T10:32:54.462Z,2.14
2016-09-05T10:33:54.452Z,2.22
2016-09-05T10:34:54.443Z,2.04
2016-09-05T10:35:54.451Z,1.9
2016-09-05T10:36:54.416Z,1.71
2016-09-05T10:37:55.098Z,1.88
2016-09-05T10:38:54.388Z,1.83
2016-09-05T10:39:54.389Z,1.67
2016-09-05T10:40:54.382Z,1.71
2016-09-05T10:41:54.362Z,1.95
2016-09-05T10:42:54.339Z,2.01
2016-09-05T10:43:54.312Z,2.09
2016-09-05T10:44:54.335Z,2.38
2016-09-05T10:45:54.311Z,2.4
2016-09-05T10:46:54.272Z,2.2
2016-09-05T10:47:54.254Z,2.14
2016-09-05T10:48:54.255Z,2.02
2016-09-05T10:49:54.215Z,2.36
2016-09-05T10:50:54.205Z,2.12
2016-09-05T10:51:54.205Z,2
2016-09-05T10:52:54.212Z,2.02
2016-09-05T10:53:54.193Z,2.43
2016-09-05T10:54:54.185Z,2.33
2016-09-05T10:55:54.136Z,2.37
2016-09-05T10:56:54.144Z,2.43
2016-09-05T10:57:54.128Z,2.26
2016-09-05T10:58:54.165Z,2.3
2016-09-05T10:59:54.102Z,1.93
2016-09-05T11:00:54.071Z,2.08
2016-09-05T11:01:54.067Z,2.27
2016-09-05T11:02:54.074Z,2.25
2016-09-05T11:03:54.023Z,2.11
2016-09-05T11:04:54.034Z,2.09
2016-09-05T11:05:54.009Z,1.85
2016-09-05T11:06:54.016Z,2.12
2016-09-05T11:07:53.998Z,2.04
2016-09-05T11:08:53.976Z,1.83
2016-09-05T11:09:53.962Z,1.86
2016-09-05T11:10:53.956Z,1.86
2016-09-05T11:11:53.932Z,1.71
2016-09-05T11:12:53.898Z,1.92
2016-09-05T11:13:53.911Z,2.05
2016-09-05T11:14:53.884Z,1.9
2016-09-05T11:15:53.870Z,1.86
2016-09-05T11:16:53.844Z,1.7
2016-09-05T11:17:53.851Z,1.77
2016-09-05T11:18:53.828Z,1.92
2016-09-05T11:19:53.814Z,1.57
2016-09-05T11:20:53.801Z,1.47
2016-09-05T11:24:25.850Z,1.67
2016-09-05T11:24:53.726Z,1.75
2016-09-05T11:25:53.724Z,1.75
2016-09-05T11:26:53.706Z,1.93
2016-09-05T11:27:53.690Z,1.95
2016-09-05T11:28:53.680Z,2.23
2016-09-05T11:29:53.688Z,2.3
2016-09-05T11:30:53.677Z,2.68
2016-09-05T11:31:53.656Z,2.65
2016-09-05T11:32:53.632Z,2.71
2016-09-05T11:33:53.610Z,2.97
2016-09-05T11:34:53.617Z,2.86
2016-09-05T11:35:53.590Z,2.8
2016-09-05T11:36:53.575Z,2.74
2016-09-05T11:37:53.562Z,2.89
2016-09-05T11:38:53.547Z,2.65
2016-09-05T11:39:53.525Z,2.3
2016-09-05T11:40:53.521Z,2.09
2016-09-05T11:41:54.179Z,1.86
2016-09-05T11:42:53.484Z,2.45
2016-09-05T11:43:53.493Z,2.43
2016-09-05T11:44:53.458Z,2.32
2016-09-05T11:45:53.450Z,2.11
2016-09-05T11:46:53.423Z,2.37
2016-09-05T11:47:53.438Z,2.84
2016-09-05T11:48:53.414Z,2.8
2016-09-05T11:49:53.402Z,2.77
2016-09-05T11:50:53.378Z,2.73
2016-09-05T11:51:53.368Z,2.69
2016-09-05T11:52:53.370Z,2.76
2016-09-05T11:53:53.351Z,2.71
2016-09-05T11:54:53.309Z,2.8
2016-09-05T11:55:53.327Z,3.45
2016-09-05T11:56:53.277Z,3.6
2016-09-05T11:57:53.287Z,4.07
2016-09-05T11:58:53.366Z,3.96
2016-09-05T11:59:53.256Z,3.56
2016-09-05T12:00:53.241Z,3.05
2016-09-05T12:01:53.234Z,2.83
2016-09-05T12:02:53.238Z,2.79
2016-09-05T12:03:53.202Z,2.86
2016-09-05T12:04:53.210Z,3.01
2016-09-05T12:05:53.177Z,2.9
2016-09-05T12:06:53.175Z,2.92
2016-09-05T12:07:53.168Z,2.65
2016-09-05T12:08:53.138Z,2.62
2016-09-05T12:09:53.136Z,2.36
2016-09-05T12:10:53.118Z,2.27
2016-09-05T12:11:53.088Z,2.26
2016-09-05T12:12:53.089Z,2.14
2016-09-05T12:13:53.091Z,2.29
2016-09-05T12:14:53.077Z,2.45
2016-09-05T12:15:53.033Z,2.74
2016-09-05T12:16:53.044Z,2.59
2016-09-05T12:17:53.026Z,2.5
2016-09-05T12:18:52.986Z,2.38
2016-09-05T12:19:53.023Z,2.56
2016-09-05T12:20:52.978Z,2.84
2016-09-05T12:21:52.968Z,2.76
2016-09-05T12:22:52.951Z,2.77
2016-09-05T12:23:52.946Z,2.8
2016-09-05T12:24:52.947Z,2.8
2016-09-05T12:25:52.928Z,2.97
2016-09-05T12:26:52.882Z,2.76
2016-09-05T12:27:52.902Z,2.84
2016-09-05T12:28:52.882Z,2.79
2016-09-05T12:29:52.857Z,2.81
2016-09-05T12:30:52.856Z,2.77
2016-09-05T12:31:52.844Z,2.79
2016-09-05T12:33:52.835Z,2.71
2016-09-05T12:34:52.790Z,2.51
2016-09-05T12:35:52.776Z,2.47
2016-09-05T12:36:52.749Z,2.44
2016-09-05T12:37:52.759Z,2.38
2016-09-05T12:38:52.748Z,2.3
2016-09-05T12:39:52.718Z,2.51
2016-09-05T12:40:52.720Z,2.56
2016-09-05T12:41:52.709Z,2.32
2016-09-05T12:42:52.697Z,2.14
2016-09-05T12:43:52.687Z,2.02
2016-09-05T12:44:52.683Z,1.98
2016-09-05T12:45:52.668Z,2.08
2016-09-05T12:46:52.640Z,2.11
2016-09-05T12:47:52.614Z,2.07
2016-09-05T12:48:52.625Z,2.09
2016-09-05T12:49:52.610Z,2.11
2016-09-05T12:50:52.569Z,2.11
2016-09-05T12:51:52.573Z,2.37
2016-09-05T12:52:52.861Z,2.45
2016-09-05T12:53:52.536Z,2.37
2016-09-05T12:54:52.523Z,2.18
2016-09-05T12:55:52.537Z,2.19
2016-09-05T12:56:52.528Z,2.12
2016-09-05T12:57:52.486Z,2.27
2016-09-05T12:58:52.511Z,2.51
2016-09-05T12:59:52.468Z,2.45
2016-09-05T13:00:52.446Z,2.63
2016-09-05T13:01:52.451Z,2.56
2016-09-05T13:02:52.431Z,2.44
2016-09-05T13:03:52.409Z,2.68
2016-09-05T13:04:52.379Z,2.69
2016-09-05T13:05:52.398Z,2.79
2016-09-05T13:06:52.379Z,2.83
2016-09-05T13:07:52.380Z,2.94
2016-09-05T13:08:52.358Z,2.89
2016-09-05T13:09:52.332Z,3.15
2016-09-05T13:10:52.319Z,3.17
2016-09-05T13:11:52.608Z,3.01
2016-09-05T13:12:52.294Z,2.99
2016-09-05T13:13:52.280Z,2.99
2016-09-05T13:14:52.247Z,2.89
2016-09-05T13:15:52.262Z,2.79
2016-09-05T13:16:52.242Z,2.79
2016-09-05T13:17:52.220Z,2.74
2016-09-05T13:18:52.195Z,2.83
2016-09-05T13:19:52.192Z,2.86
2016-09-05T13:20:52.210Z,2.99
2016-09-05T13:21:52.167Z,2.95
2016-09-05T13:22:52.165Z,2.99
2016-09-05T13:23:52.147Z,2.77
2016-09-05T13:24:52.128Z,2.94
2016-09-05T13:25:52.128Z,2.81
2016-09-05T13:26:52.120Z,2.95